createdAt,value
2018-11-28T00:02:06.910Z,-2.12
2018-11-28T00:04:39.021Z,-2.26
2018-11-28T00:07:11.153Z,-2.33
2018-11-28T00:09:43.250Z,-2.38
2018-11-28T00:12:15.377Z,-2.34
2018-11-28T00:14:47.466Z,-2.32
2018-11-28T00:17:19.604Z,-2.41
2018-11-28T00:19:51.679Z,-2.55
2018-11-28T00:22:23.790Z,-2.59
2018-11-28T00:24:55.833Z,-2.55
2018-11-28T00:27:27.993Z,-2.61
2018-11-28T00:30:00.037Z,-2.68
2018-11-28T00:32:32.137Z,-2.68
2018-11-28T00:35:04.705Z,-2.87
2018-11-28T00:37:36.803Z,-3.04
2018-11-28T00:40:10.058Z,-3.16
2018-11-28T00:42:42.241Z,-3.19
2018-11-28T00:45:17.751Z,-3.09
2018-11-28T00:47:49.846Z,-3.15
2018-11-28T00:50:24.030Z,-3.22
2018-11-28T00:52:56.120Z,-3.27
2018-11-28T00:55:28.198Z,-3.25
2018-11-28T00:58:00.290Z,-3.17
2018-11-28T01:00:32.398Z,-3.15
2018-11-28T01:03:04.509Z,-3.05
2018-11-28T01:05:36.573Z,-2.78
2018-11-28T01:08:08.694Z,-2.56
2018-11-28T01:10:40.814Z,-2.53
2018-11-28T01:13:12.919Z,-2.69
2018-11-28T01:15:45.007Z,-2.72
2018-11-28T01:18:17.086Z,-2.72
2018-11-28T01:20:49.141Z,-2.74
2018-11-28T01:23:21.253Z,-2.94
2018-11-28T01:25:53.386Z,-3.11
2018-11-28T01:28:25.472Z,-3.23
2018-11-28T01:30:57.545Z,-3.10
2018-11-28T01:33:29.632Z,-3.03
2018-11-28T01:36:01.710Z,-3.11
2018-11-28T01:38:34.110Z,-3.06
2018-11-28T01:41:06.206Z,-3.07
2018-11-28T01:43:38.345Z,-3.20
2018-11-28T01:46:10.434Z,-3.29
2018-11-28T01:48:42.561Z,-3.40
2018-11-28T01:51:14.673Z,-3.49
2018-11-28T01:53:46.801Z,-3.39
2018-11-28T01:56:18.846Z,-3.48
2018-11-28T01:58:50.937Z,-3.54
2018-11-28T02:01:23.263Z,-3.49
2018-11-28T02:03:55.307Z,-3.52
2018-11-28T02:06:27.454Z,-3.60
2018-11-28T02:08:59.486Z,-3.69
2018-11-28T02:11:31.521Z,-3.69
2018-11-28T02:14:03.781Z,-3.73
2018-11-28T02:16:35.812Z,-3.71
2018-11-28T02:19:07.869Z,-3.80
2018-11-28T02:21:39.885Z,-3.98
2018-11-28T02:24:11.950Z,-3.95
2018-11-28T02:26:44.095Z,-3.99
2018-11-28T02:29:16.225Z,-4.05
2018-11-28T02:31:48.257Z,-3.77
2018-11-28T02:34:20.287Z,-3.66
2018-11-28T02:36:52.377Z,-3.55
2018-11-28T02:39:24.433Z,-3.33
2018-11-28T02:41:56.468Z,-2.97
2018-11-28T02:44:28.527Z,-2.76
2018-11-28T02:47:00.503Z,-2.58
2018-11-28T02:49:32.595Z,-2.46
2018-11-28T02:52:04.965Z,-2.38
2018-11-28T02:54:37.074Z,-2.30
2018-11-28T02:57:09.143Z,-2.20
2018-11-28T02:59:41.416Z,-2.16
2018-11-28T03:02:13.465Z,-2.03
2018-11-28T03:04:45.595Z,-1.98
2018-11-28T03:07:17.720Z,-2.00
2018-11-28T03:09:49.813Z,-1.97
2018-11-28T03:12:21.957Z,-2.03
2018-11-28T03:14:54.203Z,-1.98
2018-11-28T03:17:26.318Z,-1.99
2018-11-28T03:19:58.410Z,-1.92
2018-11-28T03:22:30.501Z,-1.93
2018-11-28T03:25:02.634Z,-1.88
2018-11-28T03:27:34.750Z,-1.86
2018-11-28T03:30:12.317Z,-1.81
2018-11-28T03:32:44.451Z,-1.80
2018-11-28T03:35:16.554Z,-1.85
2018-11-28T03:37:48.654Z,-1.74
2018-11-28T03:40:20.783Z,-1.76
2018-11-28T03:42:52.902Z,-1.73
2018-11-28T03:45:25.012Z,-1.79
2018-11-28T03:47:57.085Z,-1.81
2018-11-28T03:50:29.228Z,-1.79
2018-11-28T03:53:01.331Z,-1.80
2018-11-28T03:55:33.454Z,-1.83
2018-11-28T03:58:05.519Z,-1.71
2018-11-28T04:00:37.598Z,-1.60
2018-11-28T04:03:09.706Z,-1.65
2018-11-28T04:05:41.759Z,-1.62
2018-11-28T04:08:13.806Z,-1.63
2018-11-28T04:10:45.858Z,-1.63
2018-11-28T04:13:17.908Z,-1.65
2018-11-28T04:15:49.942Z,-1.54
2018-11-28T04:18:22.007Z,-1.49
2018-11-28T04:20:54.107Z,-1.48
2018-11-28T04:23:26.154Z,-1.54
2018-11-28T04:25:58.254Z,-1.38
2018-11-28T04:28:30.320Z,-1.36
2018-11-28T04:31:02.394Z,-1.33
2018-11-28T04:33:34.451Z,-1.41
2018-11-28T04:36:06.511Z,-1.33
2018-11-28T04:38:38.562Z,-1.27
2018-11-28T04:41:10.661Z,-1.29
2018-11-28T04:43:42.781Z,-1.21
2018-11-28T04:46:14.823Z,-1.26
2018-11-28T04:48:46.895Z,-1.27
2018-11-28T04:51:19.056Z,-1.31
2018-11-28T04:53:51.108Z,-1.22
2018-11-28T04:56:23.207Z,-1.27
2018-11-28T04:58:55.266Z,-1.28
2018-11-28T05:01:27.394Z,-1.14
2018-11-28T05:04:00.309Z,-1.05
2018-11-28T05:07:42.437Z,-1.16
2018-11-28T05:10:30.924Z,-1.17
2018-11-28T05:13:03.044Z,-1.05
2018-11-28T05:15:35.133Z,-1.13
2018-11-28T05:18:07.278Z,-1.14
2018-11-28T05:20:39.362Z,-1.14
2018-11-28T05:23:11.475Z,-1.11
2018-11-28T05:25:43.541Z,-1.15
2018-11-28T05:28:15.621Z,-1.11
2018-11-28T05:30:47.671Z,-1.13
2018-11-28T05:33:19.755Z,-1.06
2018-11-28T05:35:51.846Z,-0.95
2018-11-28T05:38:23.926Z,-0.98
2018-11-28T05:40:56.009Z,-0.94
2018-11-28T05:43:28.252Z,-0.99
2018-11-28T05:46:00.325Z,-0.98
2018-11-28T05:48:32.415Z,-1.02
2018-11-28T05:51:04.518Z,-1.03
2018-11-28T05:53:36.623Z,-0.96
2018-11-28T05:56:08.708Z,-1.03
2018-11-28T05:58:40.975Z,-0.97
2018-11-28T06:01:13.030Z,-0.99
2018-11-28T06:03:45.117Z,-0.95
2018-11-28T06:06:17.175Z,-0.98
2018-11-28T06:08:49.397Z,-1.04
2018-11-28T06:11:22.607Z,-1.00
2018-11-28T06:13:54.830Z,-0.92
2018-11-28T06:16:26.867Z,-1.00
2018-11-28T06:18:58.962Z,-0.98
2018-11-28T06:21:31.015Z,-0.95
2018-11-28T06:24:03.191Z,-1.06
2018-11-28T06:26:37.400Z,-1.13
2018-11-28T06:29:09.495Z,-2.59
2018-11-28T06:31:42.614Z,-1.16
2018-11-28T06:34:17.432Z,-1.18
2018-11-28T06:36:49.557Z,-1.17
2018-11-28T06:39:21.626Z,-1.17
2018-11-28T06:41:54.118Z,-1.13
2018-11-28T06:44:26.321Z,-1.13
2018-11-28T06:46:58.441Z,-1.14
2018-11-28T06:49:30.519Z,-1.12
2018-11-28T06:52:02.541Z,-1.14
2018-11-28T06:54:34.581Z,-1.16
2018-11-28T06:57:07.809Z,-1.18
2018-11-28T06:59:39.883Z,-1.11
2018-11-28T07:02:12.243Z,-1.12
2018-11-28T07:04:44.501Z,-1.18
2018-11-28T07:07:16.682Z,-1.08
2018-11-28T07:09:49.049Z,-1.00
2018-11-28T07:12:21.426Z,-0.93
2018-11-28T07:14:53.761Z,-1.04
2018-11-28T07:17:25.847Z,-1.01
2018-11-28T07:19:58.088Z,-0.97
2018-11-28T07:22:30.215Z,-0.97
2018-11-28T07:25:02.492Z,-0.93
2018-11-28T07:27:34.682Z,-0.93
2018-11-28T07:30:14.183Z,-0.78
2018-11-28T07:32:46.637Z,-0.79
2018-11-28T07:35:18.818Z,-0.90
2018-11-28T07:37:50.844Z,-0.84
2018-11-28T07:40:25.386Z,-0.76
2018-11-28T07:43:00.847Z,-0.66
2018-11-28T07:45:32.856Z,-0.68
2018-11-28T07:48:04.920Z,-0.61
2018-11-28T07:50:36.868Z,-0.69
2018-11-28T07:53:08.861Z,-0.72
2018-11-28T07:55:40.835Z,-0.63
2018-11-28T07:58:12.806Z,-0.56
2018-11-28T08:00:44.797Z,-0.53
2018-11-28T08:03:16.780Z,-0.51
2018-11-28T08:05:48.757Z,-0.54
2018-11-28T08:08:20.720Z,-0.56
2018-11-28T08:10:53.018Z,-0.45
2018-11-28T08:13:24.976Z,-0.54
2018-11-28T08:15:56.993Z,-0.52
2018-11-28T08:18:28.964Z,-0.43
2018-11-28T08:21:00.946Z,-0.48
2018-11-28T08:23:32.901Z,-0.37
2018-11-28T08:26:05.130Z,-0.21
2018-11-28T08:28:37.060Z,-0.29
2018-11-28T08:31:09.984Z,-0.29
2018-11-28T08:33:41.009Z,-0.22
2018-11-28T08:36:12.985Z,-0.18
2018-11-28T08:38:44.933Z,-0.06
2018-11-28T08:41:16.930Z,0.05
2018-11-28T08:43:48.935Z,-0.01
2018-11-28T08:46:20.946Z,0.03
2018-11-28T08:48:53.013Z,0.11
2018-11-28T08:51:25.030Z,0.11
2018-11-28T08:53:56.990Z,0.17
2018-11-28T08:56:28.984Z,0.17
2018-11-28T08:59:00.939Z,0.23
2018-11-28T09:01:32.897Z,0.50
2018-11-28T09:04:05.117Z,0.45
2018-11-28T09:06:37.115Z,0.28
2018-11-28T09:09:09.084Z,0.31
2018-11-28T09:11:41.074Z,0.19
2018-11-28T09:14:13.033Z,0.20
2018-11-28T09:16:44.993Z,0.20
2018-11-28T09:19:16.951Z,0.26
2018-11-28T09:21:48.934Z,0.26
2018-11-28T09:24:20.889Z,0.18
2018-11-28T09:26:52.840Z,0.27
2018-11-28T09:29:24.801Z,0.43
2018-11-28T09:31:56.768Z,0.35
2018-11-28T09:34:28.723Z,0.42
2018-11-28T09:37:00.675Z,0.54
2018-11-28T09:39:32.632Z,0.51
2018-11-28T09:42:04.885Z,0.69
2018-11-28T09:44:36.830Z,0.80
2018-11-28T09:47:08.798Z,0.78
2018-11-28T09:49:40.741Z,0.79
2018-11-28T09:52:12.766Z,0.64
2018-11-28T09:54:44.709Z,0.78
2018-11-28T09:57:16.669Z,0.58
2018-11-28T09:59:48.646Z,0.53
2018-11-28T10:02:20.593Z,0.70
2018-11-28T10:04:52.528Z,0.79
2018-11-28T10:07:24.667Z,1.02
2018-11-28T10:09:56.645Z,0.89
2018-11-28T10:12:28.652Z,0.56
2018-11-28T10:15:00.637Z,0.49
2018-11-28T10:17:32.696Z,0.79
2018-11-28T10:20:05.729Z,0.65
2018-11-28T10:22:37.841Z,0.74
2018-11-28T10:25:17.974Z,1.01
2018-11-28T10:27:51.545Z,0.96
2018-11-28T10:30:24.841Z,1.02
2018-11-28T10:32:56.856Z,0.79
2018-11-28T10:35:28.981Z,1.01
2018-11-28T10:38:00.986Z,0.95
2018-11-28T10:40:33.004Z,1.12
2018-11-28T10:43:06.301Z,1.30
2018-11-28T10:45:38.333Z,1.25
2018-11-28T10:48:11.241Z,1.35
2018-11-28T10:50:43.209Z,1.08
2018-11-28T10:53:15.190Z,1.15
2018-11-28T10:55:47.161Z,1.30
2018-11-28T10:58:19.161Z,1.22
2018-11-28T11:00:56.917Z,1.08
2018-11-28T11:03:34.504Z,1.25
2018-11-28T11:06:12.226Z,1.39
2018-11-28T11:08:49.766Z,1.26
2018-11-28T11:11:23.812Z,0.93
2018-11-28T11:14:01.637Z,0.88
2018-11-28T11:16:33.642Z,0.82
2018-11-28T11:19:05.680Z,0.84
2018-11-28T11:21:37.682Z,0.82
2018-11-28T11:24:09.665Z,0.78
2018-11-28T11:26:41.646Z,0.89
2018-11-28T11:29:13.667Z,1.07
2018-11-28T11:31:45.649Z,0.95
2018-11-28T11:34:17.649Z,0.83
2018-11-28T11:36:49.701Z,0.63
2018-11-28T11:39:21.693Z,0.47
2018-11-28T11:41:53.684Z,0.64
2018-11-28T11:44:25.706Z,0.70
2018-11-28T11:46:57.687Z,0.60
2018-11-28T11:49:29.673Z,0.57
2018-11-28T11:52:01.652Z,0.43
2018-11-28T11:54:33.662Z,0.44
2018-11-28T11:57:05.771Z,0.47
2018-11-28T11:59:37.785Z,0.35
2018-11-28T12:02:09.805Z,0.29
2018-11-28T12:04:41.828Z,0.40
2018-11-28T12:07:13.789Z,0.50
2018-11-28T12:09:45.757Z,0.20
2018-11-28T12:12:17.717Z,0.34
2018-11-28T12:14:49.682Z,0.20
2018-11-28T12:17:21.688Z,0.36
2018-11-28T12:19:53.722Z,0.33
2018-11-28T12:22:26.220Z,0.42
2018-11-28T12:24:58.263Z,0.44
2018-11-28T12:27:30.194Z,0.46
2018-11-28T12:30:02.209Z,0.32
2018-11-28T12:32:34.181Z,0.19
2018-11-28T12:35:08.602Z,0.29
2018-11-28T12:37:40.989Z,0.37
2018-11-28T12:40:14.172Z,0.28
2018-11-28T12:42:51.389Z,0.41
2018-11-28T12:45:23.370Z,0.58
2018-11-28T12:47:55.337Z,0.74
2018-11-28T12:50:29.301Z,0.61
2018-11-28T12:53:01.639Z,0.72
2018-11-28T12:55:35.098Z,0.70
2018-11-28T12:58:10.669Z,0.71
2018-11-28T13:00:42.669Z,0.66
2018-11-28T13:03:15.969Z,0.84
2018-11-28T13:05:48.045Z,0.78
2018-11-28T13:08:20.038Z,0.71
2018-11-28T13:10:52.266Z,0.80
2018-11-28T13:13:24.254Z,0.83
2018-11-28T13:15:56.279Z,0.78
2018-11-28T13:18:28.256Z,0.96
2018-11-28T13:21:00.254Z,0.92
2018-11-28T13:23:32.239Z,0.80
2018-11-28T13:26:04.725Z,0.87
2018-11-28T13:28:36.720Z,0.81
2018-11-28T13:31:08.721Z,0.65
2018-11-28T13:33:40.709Z,0.73
2018-11-28T13:36:12.720Z,0.75
2018-11-28T13:38:44.707Z,0.49
2018-11-28T13:41:17.025Z,0.50
2018-11-28T13:43:49.020Z,0.44
2018-11-28T13:46:21.025Z,0.36
2018-11-28T13:48:53.001Z,0.41
2018-11-28T13:51:25.010Z,0.41
2018-11-28T13:53:57.002Z,0.44
2018-11-28T13:56:58.477Z,0.41
2018-11-28T13:59:01.023Z,0.38
2018-11-28T14:01:33.045Z,0.31
2018-11-28T14:04:05.196Z,0.31
2018-11-28T14:06:37.150Z,0.34
2018-11-28T14:09:09.149Z,0.28
2018-11-28T14:11:41.113Z,0.26
2018-11-28T14:14:13.082Z,0.32
2018-11-28T14:16:45.062Z,0.29
2018-11-28T14:19:17.019Z,0.22
2018-11-28T14:21:49.009Z,0.19
2018-11-28T14:24:21.992Z,0.22
2018-11-28T14:26:53.944Z,0.33
2018-11-28T14:29:25.979Z,0.24
2018-11-28T14:31:57.986Z,0.28
2018-11-28T14:34:29.994Z,0.33
2018-11-28T14:37:02.045Z,0.31
2018-11-28T14:39:34.021Z,0.35
2018-11-28T14:42:06.009Z,0.25
2018-11-28T14:44:37.988Z,0.26
2018-11-28T14:47:09.956Z,0.31
2018-11-28T14:49:41.898Z,0.44
2018-11-28T14:52:13.870Z,0.37
2018-11-28T14:54:45.896Z,0.30
2018-11-28T14:57:17.857Z,0.29
2018-11-28T14:59:49.832Z,0.31
2018-11-28T15:02:22.563Z,0.27
2018-11-28T15:04:54.517Z,0.32
2018-11-28T15:07:26.516Z,0.24
2018-11-28T15:09:58.734Z,0.27
2018-11-28T15:12:30.807Z,0.19
2018-11-28T15:15:02.833Z,0.17
2018-11-28T15:17:34.875Z,0.22
2018-11-28T15:20:07.718Z,0.20
2018-11-28T15:22:39.721Z,0.19
2018-11-28T15:25:11.733Z,0.20
2018-11-28T15:27:43.684Z,0.19
2018-11-28T15:30:15.675Z,0.25
2018-11-28T15:32:47.653Z,0.26
2018-11-28T15:35:19.578Z,0.35
2018-11-28T15:37:51.537Z,0.33
2018-11-28T15:40:23.497Z,0.31
2018-11-28T15:42:55.536Z,0.31
2018-11-28T15:45:27.541Z,0.31
2018-11-28T15:47:59.521Z,0.34
2018-11-28T15:50:31.493Z,0.27
2018-11-28T15:53:03.517Z,0.23
2018-11-28T15:55:36.489Z,0.25
2018-11-28T15:58:08.476Z,0.21
2018-11-28T16:00:40.464Z,0.24
2018-11-28T16:03:12.477Z,0.22
2018-11-28T16:05:44.441Z,0.22
2018-11-28T16:08:16.477Z,0.22
2018-11-28T16:10:48.508Z,0.20
2018-11-28T16:13:20.524Z,0.25
2018-11-28T16:15:54.632Z,0.24
2018-11-28T16:18:26.693Z,0.15
2018-11-28T16:20:59.761Z,0.18
2018-11-28T16:23:32.826Z,0.14
2018-11-28T16:26:04.860Z,0.14
2018-11-28T16:28:36.916Z,0.15
2018-11-28T16:31:08.956Z,0.11
2018-11-28T16:33:41.097Z,0.00
2018-11-28T16:36:13.118Z,-0.06
2018-11-28T16:38:45.145Z,-0.02
2018-11-28T16:41:17.121Z,0.03
2018-11-28T16:43:50.238Z,-0.02
2018-11-28T16:46:22.218Z,-0.06
2018-11-28T16:48:54.256Z,-0.07
2018-11-28T16:51:26.281Z,-0.14
2018-11-28T16:53:58.305Z,-0.18
2018-11-28T16:56:30.313Z,-0.18
2018-11-28T16:59:02.375Z,-0.14
2018-11-28T17:01:35.373Z,-0.19
2018-11-28T17:04:07.401Z,-0.18
2018-11-28T17:06:39.428Z,-0.24
2018-11-28T17:09:11.401Z,-0.24
2018-11-28T17:11:43.372Z,-0.19
2018-11-28T17:14:15.374Z,-0.16
2018-11-28T17:16:47.385Z,-0.11
2018-11-28T17:19:19.370Z,-0.13
2018-11-28T17:21:51.353Z,0.00
2018-11-28T17:24:24.699Z,-0.07
2018-11-28T17:26:56.821Z,-0.10
2018-11-28T17:29:28.905Z,-0.16
2018-11-28T17:32:01.017Z,-0.19
2018-11-28T17:34:33.313Z,-0.28
2018-11-28T17:37:05.868Z,-0.33
2018-11-28T17:39:38.652Z,-0.33
2018-11-28T17:42:10.709Z,-0.36
2018-11-28T17:44:42.677Z,-0.35
2018-11-28T17:50:15.011Z,-0.32
2018-11-28T17:52:55.566Z,-0.19
2018-11-28T17:55:29.062Z,-0.13
2018-11-28T17:58:01.150Z,-0.15
2018-11-28T18:00:33.327Z,-0.14
2018-11-28T18:03:05.376Z,-0.07
2018-11-28T18:05:37.645Z,-0.15
2018-11-28T18:08:09.701Z,-0.22
2018-11-28T18:10:41.774Z,-0.33
2018-11-28T18:13:16.634Z,-0.46
2018-11-28T18:15:52.003Z,-0.61
2018-11-28T18:18:24.911Z,-0.70
2018-11-28T18:20:57.041Z,-0.81
2018-11-28T18:23:29.148Z,-1.00
2018-11-28T18:26:03.260Z,-1.06
2018-11-28T18:28:35.363Z,-1.21
2018-11-28T18:31:07.491Z,-1.28
2018-11-28T18:33:39.624Z,-1.33
2018-11-28T18:36:11.726Z,-1.39
2018-11-28T18:38:43.783Z,-1.43
2018-11-28T18:41:15.834Z,-1.54
2018-11-28T18:43:47.855Z,-1.64
2018-11-28T18:46:19.982Z,-1.71
2018-11-28T18:48:52.093Z,-1.67
2018-11-28T18:51:24.195Z,-1.65
2018-11-28T18:53:56.277Z,-1.71
2018-11-28T18:56:28.355Z,-1.82
2018-11-28T18:59:00.456Z,-1.90
2018-11-28T19:01:32.618Z,-1.95
2018-11-28T19:04:04.723Z,-2.13
2018-11-28T19:06:36.797Z,-2.11
2018-11-28T19:09:13.912Z,-2.15
2018-11-28T19:11:46.009Z,-2.15
2018-11-28T19:14:18.092Z,-2.14
2018-11-28T19:16:50.229Z,-2.04
2018-11-28T19:19:22.285Z,-2.11
2018-11-28T19:21:54.379Z,-2.04
2018-11-28T19:24:26.438Z,-2.24
2018-11-28T19:26:58.509Z,-2.23
2018-11-28T19:29:30.655Z,-2.30
2018-11-28T19:32:02.682Z,-2.43
2018-11-28T19:34:34.750Z,-2.45
2018-11-28T19:37:06.860Z,-2.44
2018-11-28T19:39:38.906Z,-2.43
2018-11-28T19:42:10.935Z,-2.52
2018-11-28T19:44:42.957Z,-2.46
2018-11-28T19:47:14.985Z,-2.63
2018-11-28T19:49:47.057Z,-2.72
2018-11-28T19:52:19.133Z,-2.69
2018-11-28T19:54:51.158Z,-2.62
2018-11-28T19:57:24.185Z,-2.68
2018-11-28T19:59:56.281Z,-2.63
2018-11-28T20:02:28.334Z,-2.69
2018-11-28T20:05:00.445Z,-2.74
2018-11-28T20:07:32.518Z,-2.76
2018-11-28T20:10:07.945Z,-2.71
2018-11-28T20:12:39.969Z,-2.74
2018-11-28T20:15:15.151Z,-2.88
2018-11-28T20:17:47.425Z,-2.97
2018-11-28T20:20:19.990Z,-2.87
2018-11-28T20:22:52.013Z,-2.88
2018-11-28T20:25:24.460Z,-2.94
2018-11-28T20:27:58.448Z,-2.91
2018-11-28T20:30:34.951Z,-2.91
2018-11-28T20:33:07.578Z,-2.96
2018-11-28T20:35:40.496Z,-2.73
2018-11-28T20:38:24.169Z,-2.77
2018-11-28T20:40:56.277Z,-2.82
2018-11-28T20:43:28.341Z,-2.76
2018-11-28T20:46:00.689Z,-2.65
2018-11-28T20:48:32.758Z,-2.78
2018-11-28T20:51:04.974Z,-2.91
2018-11-28T20:53:37.030Z,-2.90
2018-11-28T20:56:09.129Z,-2.73
2018-11-28T20:58:41.226Z,-2.82
2018-11-28T21:01:13.319Z,-2.83
2018-11-28T21:03:45.626Z,-2.75
2018-11-28T21:06:17.706Z,-2.72
2018-11-28T21:08:49.883Z,-2.78
2018-11-28T21:11:21.945Z,-2.62
2018-11-28T21:13:55.155Z,-2.54
2018-11-28T21:16:27.250Z,-2.62
2018-11-28T21:18:59.399Z,-2.71
2018-11-28T21:21:31.509Z,-2.71
2018-11-28T21:24:03.621Z,-2.60
2018-11-28T21:26:35.718Z,-2.60
2018-11-28T21:29:07.778Z,-2.69
2018-11-28T21:31:39.922Z,-2.69
2018-11-28T21:34:11.978Z,-2.68
2018-11-28T21:36:44.085Z,-2.74
2018-11-28T21:39:16.154Z,-2.85
2018-11-28T21:41:48.240Z,-2.74
2018-11-28T21:44:20.279Z,-2.67
2018-11-28T21:46:52.417Z,-2.71
2018-11-28T21:49:24.497Z,-2.70
2018-11-28T21:51:56.719Z,-2.71
2018-11-28T21:54:28.765Z,-2.73
2018-11-28T21:57:00.892Z,-2.80
2018-11-28T21:59:32.950Z,-2.84
2018-11-28T22:02:05.552Z,-2.88
2018-11-28T22:04:37.633Z,-2.95
2018-11-28T22:07:09.718Z,-2.94
2018-11-28T22:09:41.772Z,-2.92
2018-11-28T22:12:14.211Z,-2.90
2018-11-28T22:14:46.268Z,-2.91
2018-11-28T22:17:18.397Z,-2.92
2018-11-28T22:19:50.503Z,-3.03
2018-11-28T22:22:22.629Z,-3.09
2018-11-28T22:24:54.666Z,-3.24
2018-11-28T22:27:26.763Z,-3.42
2018-11-28T22:29:58.842Z,-3.42
2018-11-28T22:32:30.951Z,-3.39
2018-11-28T22:35:03.091Z,-3.49
2018-11-28T22:37:35.187Z,-3.49
2018-11-28T22:40:12.259Z,-3.40
2018-11-28T22:42:44.523Z,-3.23
2018-11-28T22:45:18.639Z,-3.37
2018-11-28T22:47:50.732Z,-3.37
2018-11-28T22:50:22.840Z,-3.46
2018-11-28T22:52:54.889Z,-3.46
2018-11-28T22:55:26.954Z,-3.50
2018-11-28T22:57:59.033Z,-3.61
2018-11-28T23:00:36.951Z,-3.55
2018-11-28T23:03:09.729Z,-3.45
2018-11-28T23:05:44.098Z,-3.40
2018-11-28T23:08:16.984Z,-3.45
2018-11-28T23:10:50.069Z,-3.58
2018-11-28T23:13:23.476Z,-3.67
2018-11-28T23:15:55.521Z,-3.56
2018-11-28T23:18:27.560Z,-3.48
2018-11-28T23:20:59.604Z,-3.58
2018-11-28T23:23:31.685Z,-3.59
2018-11-28T23:26:03.803Z,-3.64
2018-11-28T23:28:35.870Z,-3.60
2018-11-28T23:31:07.940Z,-3.55
2018-11-28T23:33:40.110Z,-3.48
2018-11-28T23:36:12.230Z,-3.50
2018-11-28T23:38:44.280Z,-3.54
2018-11-28T23:41:16.375Z,-3.68
2018-11-28T23:43:48.481Z,-3.68
2018-11-28T23:46:20.551Z,-3.63
2018-11-28T23:48:52.638Z,-3.64
2018-11-28T23:51:24.690Z,-3.71
2018-11-28T23:53:56.728Z,-3.79
2018-11-28T23:56:28.765Z,-3.73
2018-11-28T23:59:00.916Z,-3.71
